createdAt,value
2018-05-01T00:01:56.337Z,86.10
2018-05-01T00:04:23.421Z,85.20
2018-05-01T00:06:51.234Z,86.20
2018-05-01T00:09:18.305Z,86.20
2018-05-01T00:11:45.395Z,86.70
2018-05-01T00:14:12.533Z,87.00
2018-05-01T00:16:40.371Z,87.00
2018-05-01T00:19:07.439Z,87.60
2018-05-01T00:21:34.515Z,88.00
2018-05-01T00:24:02.540Z,88.70
2018-05-01T00:26:29.678Z,88.90
2018-05-01T00:28:56.750Z,88.40
2018-05-01T00:31:24.697Z,88.10
2018-05-01T00:33:51.792Z,87.80
2018-05-01T00:36:20.237Z,88.00
2018-05-01T00:38:47.672Z,87.80
2018-05-01T00:41:14.874Z,87.70
2018-05-01T00:43:41.945Z,87.80
2018-05-01T00:46:09.432Z,87.70
2018-05-01T00:48:36.894Z,87.30
2018-05-01T00:51:05.897Z,87.30
2018-05-01T00:53:33.765Z,87.20
2018-05-01T00:56:01.317Z,86.80
2018-05-01T00:58:28.406Z,88.00
2018-05-01T01:00:57.095Z,87.50
2018-05-01T01:03:25.637Z,87.10
2018-05-01T01:05:52.707Z,87.00
2018-05-01T01:08:20.805Z,87.10
2018-05-01T01:10:47.862Z,87.50
2018-05-01T01:13:15.452Z,88.10
2018-05-01T01:15:44.609Z,88.00
2018-05-01T01:18:12.419Z,87.60
2018-05-01T01:20:39.484Z,87.50
2018-05-01T01:23:08.061Z,88.20
2018-05-01T01:25:35.975Z,87.20
2018-05-01T01:28:03.908Z,87.20
2018-05-01T01:30:30.974Z,87.10
2018-05-01T01:32:58.082Z,87.30
2018-05-01T01:35:24.880Z,87.20
2018-05-01T01:37:52.429Z,88.20
2018-05-01T01:40:20.307Z,88.10
2018-05-01T01:42:47.040Z,88.30
2018-05-01T01:45:15.167Z,88.90
2018-05-01T01:47:41.962Z,88.90
2018-05-01T01:50:09.502Z,88.90
2018-05-01T01:52:37.708Z,89.20
2018-05-01T01:55:04.509Z,89.20
2018-05-01T01:57:31.254Z,89.30
2018-05-01T01:59:58.062Z,89.10
2018-05-01T02:02:25.204Z,89.90
2018-05-01T02:04:51.969Z,89.80
2018-05-01T02:07:18.711Z,89.60
2018-05-01T02:09:45.443Z,89.50
2018-05-01T02:12:12.177Z,89.60
2018-05-01T02:14:39.729Z,89.90
2018-05-01T02:17:08.076Z,89.60
2018-05-01T02:19:34.825Z,89.40
2018-05-01T02:22:01.933Z,89.30
2018-05-01T02:24:29.449Z,89.40
2018-05-01T02:26:56.610Z,89.40
2018-05-01T02:29:23.439Z,88.80
2018-05-01T02:31:50.211Z,89.40
2018-05-01T02:34:16.943Z,89.50
2018-05-01T02:36:44.388Z,89.20
2018-05-01T02:39:11.878Z,88.70
2018-05-01T02:41:39.495Z,88.30
2018-05-01T02:44:06.698Z,88.30
2018-05-01T02:46:33.421Z,89.30
2018-05-01T02:49:00.164Z,89.00
2018-05-01T02:51:26.800Z,89.20
2018-05-01T02:53:53.653Z,89.60
2018-05-01T02:56:20.986Z,89.30
2018-05-01T02:58:48.664Z,89.30
2018-05-01T03:01:15.303Z,89.70
2018-05-01T03:03:42.334Z,89.50
2018-05-01T03:06:08.964Z,89.70
2018-05-01T03:08:35.529Z,88.80
2018-05-01T03:11:02.120Z,88.80
2018-05-01T03:13:28.720Z,88.60
2018-05-01T03:15:56.069Z,87.80
2018-05-01T03:18:23.431Z,88.00
2018-05-01T03:20:50.538Z,88.20
2018-05-01T03:23:17.109Z,88.10
2018-05-01T03:25:43.684Z,88.30
2018-05-01T03:28:10.301Z,88.20
2018-05-01T03:30:38.130Z,88.00
2018-05-01T03:33:04.700Z,88.60
2018-05-01T03:35:32.141Z,89.60
2018-05-01T03:37:59.460Z,89.30
2018-05-01T03:40:26.073Z,89.20
2018-05-01T03:42:53.454Z,88.90
2018-05-01T03:45:20.081Z,88.40
2018-05-01T03:47:46.681Z,89.00
2018-05-01T03:50:13.272Z,89.30
2018-05-01T03:52:39.902Z,89.30
2018-05-01T03:55:07.283Z,88.90
2018-05-01T03:57:33.889Z,88.90
2018-05-01T04:00:00.529Z,89.50
2018-05-01T04:02:27.122Z,89.10
2018-05-01T04:04:54.473Z,89.10
2018-05-01T04:07:21.083Z,89.60
2018-05-01T04:09:48.393Z,89.50
2018-05-01T04:12:15.045Z,89.60
2018-05-01T04:14:41.633Z,89.90
2018-05-01T04:17:08.577Z,89.70
2018-05-01T04:19:36.382Z,90.00
2018-05-01T04:22:02.956Z,89.60
2018-05-01T04:24:29.555Z,89.50
2018-05-01T04:26:56.137Z,89.00
2018-05-01T04:29:23.473Z,89.20
2018-05-01T04:31:51.956Z,89.20
2018-05-01T04:34:18.625Z,89.70
2018-05-01T04:36:45.204Z,89.60
2018-05-01T04:39:11.792Z,89.50
2018-05-01T04:41:39.732Z,89.40
2018-05-01T04:44:06.799Z,89.40
2018-05-01T04:46:33.377Z,89.10
2018-05-01T04:49:01.488Z,89.40
2018-05-01T04:51:28.069Z,89.20
2018-05-01T04:53:55.055Z,89.70
2018-05-01T04:56:24.082Z,90.00
2018-05-01T04:58:51.763Z,90.00
2018-05-01T05:01:19.067Z,89.90
2018-05-01T05:03:46.082Z,90.00
2018-05-01T05:06:13.871Z,90.00
2018-05-01T05:08:43.803Z,90.10
2018-05-01T05:11:10.401Z,90.00
2018-05-01T05:13:36.976Z,90.10
2018-05-01T05:16:03.561Z,90.00
2018-05-01T05:18:30.668Z,89.60
2018-05-01T05:20:57.259Z,89.60
2018-05-01T05:23:23.866Z,89.70
2018-05-01T05:25:50.511Z,90.10
2018-05-01T05:28:17.110Z,90.00
2018-05-01T05:30:43.713Z,89.60
2018-05-01T05:33:12.086Z,89.70
2018-05-01T05:35:38.673Z,89.70
2018-05-01T05:38:05.273Z,89.60
2018-05-01T05:40:33.448Z,89.40
2018-05-01T05:43:01.607Z,89.80
2018-05-01T05:45:28.232Z,89.50
2018-05-01T05:47:55.561Z,90.00
2018-05-01T05:50:22.865Z,89.50
2018-05-01T05:52:49.449Z,89.60
2018-05-01T05:55:17.189Z,89.90
2018-05-01T05:57:43.989Z,89.90
2018-05-01T06:00:10.637Z,90.00
2018-05-01T06:02:37.705Z,90.10
2018-05-01T06:05:04.303Z,90.20
2018-05-01T06:07:32.409Z,90.20
2018-05-01T06:09:59.629Z,90.10
2018-05-01T06:12:26.208Z,90.00
2018-05-01T06:14:52.768Z,89.60
2018-05-01T06:17:19.426Z,89.10
2018-05-01T06:19:46.392Z,88.60
2018-05-01T06:22:13.368Z,88.50
2018-05-01T06:24:39.949Z,88.40
2018-05-01T06:27:06.525Z,88.60
2018-05-01T06:29:33.089Z,88.80
2018-05-01T06:32:00.789Z,88.70
2018-05-01T06:34:27.461Z,88.80
2018-05-01T06:36:54.032Z,88.80
2018-05-01T06:39:20.608Z,88.60
2018-05-01T06:41:47.168Z,87.50
2018-05-01T06:44:13.745Z,87.20
2018-05-01T06:46:41.628Z,87.10
2018-05-01T06:49:08.209Z,87.00
2018-05-01T06:51:34.780Z,87.20
2018-05-01T06:54:01.817Z,87.40
2018-05-01T06:56:28.420Z,87.60
2018-05-01T06:58:56.953Z,87.40
2018-05-01T07:01:25.416Z,87.30
2018-05-01T07:03:52.760Z,87.30
2018-05-01T07:06:19.344Z,87.10
2018-05-01T07:08:46.573Z,85.60
2018-05-01T07:11:13.632Z,85.90
2018-05-01T07:13:41.953Z,82.70
2018-05-01T07:16:08.652Z,82.70
2018-05-01T07:18:35.257Z,82.50
2018-05-01T07:21:02.897Z,83.40
2018-05-01T07:23:29.493Z,82.40
2018-05-01T07:25:56.052Z,81.30
2018-05-01T07:28:22.624Z,80.80
2018-05-01T07:30:50.020Z,80.00
2018-05-01T07:33:16.601Z,79.10
2018-05-01T07:35:43.856Z,79.40
2018-05-01T07:38:10.954Z,80.20
2018-05-01T07:40:37.520Z,79.90
2018-05-01T07:43:04.113Z,80.30
2018-05-01T07:45:32.763Z,77.10
2018-05-01T07:47:59.365Z,76.80
2018-05-01T07:50:25.936Z,77.80
2018-05-01T07:52:53.097Z,78.10
2018-05-01T07:55:19.660Z,78.40
2018-05-01T07:57:47.012Z,78.30
2018-05-01T08:00:14.939Z,78.10
2018-05-01T08:02:41.478Z,78.00
2018-05-01T08:05:08.795Z,77.00
2018-05-01T08:07:35.408Z,77.90
2018-05-01T08:10:02.525Z,76.50
2018-05-01T08:12:29.565Z,77.10
2018-05-01T08:14:58.989Z,77.70
2018-05-01T08:17:25.589Z,77.00
2018-05-01T08:19:52.328Z,76.80
2018-05-01T08:22:19.224Z,76.70
2018-05-01T08:24:45.892Z,76.10
2018-05-01T08:27:12.517Z,74.60
2018-05-01T08:29:39.085Z,75.00
2018-05-01T08:32:05.813Z,70.30
2018-05-01T08:34:32.492Z,71.10
2018-05-01T08:37:00.280Z,71.40
2018-05-01T08:39:26.961Z,71.40
2018-05-01T08:41:53.775Z,70.00
2018-05-01T08:44:22.065Z,70.90
2018-05-01T08:46:49.191Z,69.20
2018-05-01T08:49:15.976Z,69.80
2018-05-01T08:51:43.756Z,70.60
2018-05-01T08:54:10.332Z,69.00
2018-05-01T08:56:36.996Z,66.30
2018-05-01T08:59:04.652Z,67.50
2018-05-01T09:01:32.291Z,69.20
2018-05-01T09:03:59.593Z,69.10
2018-05-01T09:06:26.283Z,68.90
2018-05-01T09:08:53.720Z,66.60
2018-05-01T09:11:20.352Z,66.60
2018-05-01T09:13:47.412Z,66.30
2018-05-01T09:16:14.820Z,66.50
2018-05-01T09:18:41.389Z,66.10
2018-05-01T09:21:08.045Z,66.40
2018-05-01T09:23:35.252Z,65.90
2018-05-01T09:26:03.345Z,66.20
2018-05-01T09:28:29.937Z,66.20
2018-05-01T09:30:56.564Z,66.80
2018-05-01T09:33:24.177Z,66.10
2018-05-01T09:35:50.956Z,66.00
2018-05-01T09:38:17.964Z,67.10
2018-05-01T09:40:44.528Z,65.90
2018-05-01T09:43:12.187Z,64.90
2018-05-01T09:45:38.771Z,64.80
2018-05-01T09:48:05.417Z,64.10
2018-05-01T09:50:33.256Z,61.20
2018-05-01T09:53:00.125Z,60.90
2018-05-01T09:55:27.024Z,59.60
2018-05-01T09:57:53.897Z,59.30
2018-05-01T10:00:24.100Z,60.00
2018-05-01T10:02:51.077Z,60.00
2018-05-01T10:05:17.980Z,59.50
2018-05-01T10:07:47.464Z,59.90
2018-05-01T10:10:15.315Z,59.90
2018-05-01T10:12:43.187Z,61.00
2018-05-01T10:15:10.344Z,60.70
2018-05-01T10:17:37.233Z,61.10
2018-05-01T10:20:04.301Z,60.60
2018-05-01T10:22:31.214Z,61.60
2018-05-01T10:24:58.199Z,62.20
2018-05-01T10:27:26.680Z,62.80
2018-05-01T10:29:53.555Z,63.80
2018-05-01T10:32:20.432Z,62.40
2018-05-01T10:34:47.338Z,62.90
2018-05-01T10:37:14.199Z,62.70
2018-05-01T10:39:42.865Z,62.10
2018-05-01T10:42:11.436Z,62.10
2018-05-01T10:44:38.304Z,61.10
2018-05-01T10:47:05.194Z,61.00
2018-05-01T10:49:32.144Z,58.90
2018-05-01T10:52:00.660Z,58.90
2018-05-01T10:54:27.524Z,59.50
2018-05-01T10:56:54.393Z,58.70
2018-05-01T10:59:21.252Z,58.40
2018-05-01T11:01:48.129Z,58.90
2018-05-01T11:04:16.305Z,58.40
2018-05-01T11:06:43.174Z,56.70
2018-05-01T11:09:10.832Z,57.20
2018-05-01T11:11:39.020Z,55.90
2018-05-01T11:14:05.880Z,55.90
2018-05-01T11:16:33.180Z,57.10
2018-05-01T11:19:00.441Z,57.10
2018-05-01T11:21:27.303Z,57.20
2018-05-01T11:23:54.908Z,57.50
2018-05-01T11:26:22.661Z,57.40
2018-05-01T11:28:50.448Z,56.20
2018-05-01T11:31:17.320Z,57.60
2018-05-01T11:33:46.312Z,58.00
2018-05-01T11:36:13.928Z,57.00
2018-05-01T11:38:40.796Z,56.90
2018-05-01T11:41:08.387Z,56.00
2018-05-01T11:43:36.077Z,55.70
2018-05-01T11:46:03.100Z,55.80
2018-05-01T11:48:32.209Z,55.60
2018-05-01T11:50:59.095Z,55.80
2018-05-01T11:53:26.012Z,55.70
2018-05-01T11:55:53.820Z,56.20
2018-05-01T11:58:20.772Z,56.50
2018-05-01T12:00:47.768Z,55.10
2018-05-01T12:03:14.712Z,55.00
2018-05-01T12:05:42.936Z,56.20
2018-05-01T12:08:09.965Z,53.80
2018-05-01T12:10:38.016Z,53.60
2018-05-01T12:13:06.131Z,54.00
2018-05-01T12:15:33.028Z,54.90
2018-05-01T12:18:01.483Z,54.90
2018-05-01T12:20:28.359Z,54.80
2018-05-01T12:22:55.989Z,55.30
2018-05-01T12:25:24.292Z,55.30
2018-05-01T12:27:51.228Z,55.20
2018-05-01T12:30:19.352Z,53.30
2018-05-01T12:32:46.333Z,52.40
2018-05-01T12:35:13.214Z,52.60
2018-05-01T12:37:40.325Z,51.30
2018-05-01T12:40:08.981Z,51.40
2018-05-01T12:42:36.117Z,51.20
2018-05-01T12:45:03.001Z,52.60
2018-05-01T12:47:30.418Z,54.00
2018-05-01T12:49:57.345Z,53.70
2018-05-01T12:52:24.413Z,54.40
2018-05-01T12:54:53.801Z,54.90
2018-05-01T12:57:20.685Z,54.70
2018-05-01T12:59:48.305Z,55.10
2018-05-01T13:02:15.556Z,55.10
2018-05-01T13:04:43.210Z,55.10
2018-05-01T13:07:11.272Z,55.10
2018-05-01T13:09:38.152Z,54.80
2018-05-01T13:12:05.760Z,54.10
2018-05-01T13:14:32.660Z,54.00
2018-05-01T13:17:00.332Z,55.50
2018-05-01T13:19:28.000Z,54.80
2018-05-01T13:21:54.969Z,54.80
2018-05-01T13:24:22.784Z,55.40
2018-05-01T13:26:49.985Z,56.40
2018-05-01T13:29:16.903Z,56.00
2018-05-01T13:31:46.292Z,56.70
2018-05-01T13:34:13.937Z,57.50
2018-05-01T13:36:40.820Z,56.80
2018-05-01T13:39:09.173Z,55.90
2018-05-01T13:41:36.065Z,55.80
2018-05-01T13:44:03.469Z,57.10
2018-05-01T13:46:30.399Z,56.80
2018-05-01T13:48:57.361Z,57.70
2018-05-01T13:51:24.186Z,55.40
2018-05-01T13:53:52.016Z,55.60
2018-05-01T13:56:19.732Z,54.30
2018-05-01T13:58:47.344Z,55.40
2018-05-01T14:01:15.577Z,55.20
2018-05-01T14:03:43.216Z,53.70
2018-05-01T14:06:10.096Z,53.60
2018-05-01T14:08:37.612Z,54.20
2018-05-01T14:11:04.515Z,54.10
2018-05-01T14:13:33.848Z,55.10
2018-05-01T14:16:01.508Z,55.00
2018-05-01T14:18:28.428Z,54.90
2018-05-01T14:20:55.344Z,55.50
2018-05-01T14:23:23.040Z,53.80
2018-05-01T14:25:50.120Z,53.80
2018-05-01T14:28:17.009Z,54.50
2018-05-01T14:30:43.916Z,53.90
2018-05-01T14:33:11.642Z,54.60
2018-05-01T14:35:38.843Z,54.50
2018-05-01T14:38:06.584Z,54.20
2018-05-01T14:40:33.548Z,54.10
2018-05-01T14:43:00.452Z,54.00
2018-05-01T14:45:31.397Z,54.00
2018-05-01T14:47:58.284Z,54.80
2018-05-01T14:50:25.889Z,54.30
2018-05-01T14:52:52.768Z,54.20
2018-05-01T14:55:19.649Z,54.40
2018-05-01T14:57:48.246Z,54.10
2018-05-01T15:00:15.312Z,53.80
2018-05-01T15:02:54.313Z,53.80
2018-05-01T15:05:21.864Z,53.90
2018-05-01T15:07:49.188Z,52.80
2018-05-01T15:10:16.073Z,53.50
2018-05-01T15:12:43.580Z,53.30
2018-05-01T15:15:10.757Z,54.60
2018-05-01T15:17:37.804Z,54.10
2018-05-01T15:20:07.788Z,53.00
2018-05-01T15:22:34.718Z,52.40
2018-05-01T15:25:01.634Z,52.70
2018-05-01T15:27:29.252Z,52.90
2018-05-01T15:29:56.183Z,54.40
2018-05-01T15:32:24.105Z,53.60
2018-05-01T15:34:51.008Z,53.10
2018-05-01T15:37:17.878Z,53.40
2018-05-01T15:39:44.753Z,54.60
2018-05-01T15:42:11.637Z,53.80
2018-05-01T15:44:40.232Z,54.40
2018-05-01T15:47:07.876Z,54.00
2018-05-01T15:49:35.121Z,54.00
2018-05-01T15:52:01.988Z,55.20
2018-05-01T15:54:29.032Z,56.00
2018-05-01T15:56:58.676Z,58.10
2018-05-01T15:59:25.623Z,58.10
2018-05-01T16:01:52.660Z,57.90
2018-05-01T16:04:22.333Z,57.70
2018-05-01T16:06:49.272Z,58.10
2018-05-01T16:09:22.560Z,57.30
2018-05-01T16:11:50.569Z,57.40
2018-05-01T16:14:18.100Z,57.40
2018-05-01T16:16:47.106Z,58.70
2018-05-01T16:19:15.739Z,58.00
2018-05-01T16:21:43.503Z,58.00
2018-05-01T16:24:10.670Z,57.80
2018-05-01T16:26:37.740Z,58.40
2018-05-01T16:29:04.746Z,58.70
2018-05-01T16:31:31.625Z,59.20
2018-05-01T16:34:00.033Z,59.40
2018-05-01T16:36:27.016Z,59.70
2018-05-01T16:38:54.133Z,59.10
2018-05-01T16:41:22.246Z,58.90
2018-05-01T16:43:49.177Z,59.10
2018-05-01T16:46:17.249Z,59.10
2018-05-01T16:48:44.837Z,59.80
2018-05-01T16:51:13.091Z,60.30
2018-05-01T16:53:41.466Z,61.00
2018-05-01T16:56:08.885Z,61.00
2018-05-01T16:58:37.756Z,61.60
2018-05-01T17:01:04.705Z,61.60
2018-05-01T17:03:32.104Z,62.70
2018-05-01T17:05:58.960Z,61.70
2018-05-01T17:08:27.450Z,61.70
2018-05-01T17:10:55.308Z,62.20
2018-05-01T17:13:22.214Z,63.00
2018-05-01T17:15:49.080Z,62.90
2018-05-01T17:18:16.075Z,63.50
2018-05-01T17:20:42.969Z,63.80
2018-05-01T17:23:10.448Z,64.50
2018-05-01T17:25:37.721Z,63.90
2018-05-01T17:28:04.657Z,65.00
2018-05-01T17:30:31.514Z,63.70
2018-05-01T17:32:59.383Z,63.80
2018-05-01T17:35:26.292Z,64.30
2018-05-01T17:37:53.160Z,63.90
2018-05-01T17:40:20.132Z,64.80
2018-05-01T17:42:47.017Z,64.50
2018-05-01T17:45:13.929Z,64.00
2018-05-01T17:47:41.144Z,64.20
2018-05-01T17:50:08.842Z,64.60
2018-05-01T17:52:35.761Z,64.20
2018-05-01T17:55:03.105Z,63.30
2018-05-01T17:57:31.789Z,63.30
2018-05-01T17:59:58.824Z,62.30
2018-05-01T18:02:26.826Z,62.20
2018-05-01T18:04:54.450Z,63.00
2018-05-01T18:07:21.347Z,63.00
2018-05-01T18:09:48.885Z,63.40
2018-05-01T18:12:15.839Z,63.20
2018-05-01T18:14:43.478Z,64.40
2018-05-01T18:17:10.384Z,64.40
2018-05-01T18:19:38.109Z,64.10
2018-05-01T18:22:05.027Z,64.40
2018-05-01T18:24:33.164Z,65.10
2018-05-01T18:27:00.109Z,66.20
2018-05-01T18:29:27.053Z,67.70
2018-05-01T18:31:55.695Z,69.30
2018-05-01T18:34:23.352Z,70.10
2018-05-01T18:36:50.280Z,71.00
2018-05-01T18:39:18.641Z,72.90
2018-05-01T18:41:45.608Z,73.70
2018-05-01T18:44:12.536Z,73.40
2018-05-01T18:46:40.041Z,75.40
2018-05-01T18:49:08.340Z,77.10
2018-05-01T18:51:35.352Z,77.10
2018-05-01T18:54:03.961Z,78.80
2018-05-01T18:56:30.965Z,78.90
2018-05-01T18:58:58.365Z,79.90
2018-05-01T19:01:26.919Z,79.60
2018-05-01T19:03:54.569Z,81.00
2018-05-01T19:06:21.552Z,81.00
2018-05-01T19:08:48.860Z,80.50
2018-05-01T19:11:16.369Z,81.70
2018-05-01T19:13:43.269Z,82.00
2018-05-01T19:16:10.534Z,83.30
2018-05-01T19:18:41.329Z,83.90
2018-05-01T19:21:08.715Z,84.40
2018-05-01T19:23:36.072Z,84.20
2018-05-01T19:26:04.204Z,85.50
2018-05-01T19:28:31.095Z,85.20
2018-05-01T19:30:59.131Z,85.20
2018-05-01T19:33:26.013Z,85.50
2018-05-01T19:35:53.654Z,85.70
2018-05-01T19:38:21.159Z,85.70
2018-05-01T19:40:48.123Z,85.90
2018-05-01T19:43:15.641Z,85.40
2018-05-01T19:45:43.282Z,84.90
2018-05-01T19:48:10.509Z,84.90
2018-05-01T19:50:37.529Z,84.90
2018-05-01T19:53:06.916Z,85.20
2018-05-01T19:55:33.826Z,84.90
2018-05-01T19:58:00.697Z,85.30
2018-05-01T20:00:29.250Z,85.50
2018-05-01T20:02:56.618Z,85.40
2018-05-01T20:05:23.600Z,85.50
2018-05-01T20:07:53.358Z,85.50
2018-05-01T20:10:48.363Z,85.40
2018-05-01T20:13:23.275Z,85.60
2018-05-01T20:15:51.510Z,85.60
2018-05-01T20:18:18.386Z,85.90
2018-05-01T20:20:45.448Z,85.90
2018-05-01T20:23:13.116Z,85.80
2018-05-01T20:25:41.512Z,85.50
2018-05-01T20:28:11.215Z,86.20
2018-05-01T20:30:38.394Z,86.20
2018-05-01T20:33:05.325Z,86.30
2018-05-01T20:35:32.220Z,86.50
2018-05-01T20:37:59.896Z,86.40
2018-05-01T20:40:27.301Z,86.80
2018-05-01T20:42:56.183Z,86.60
2018-05-01T20:45:23.812Z,87.20
2018-05-01T20:47:50.689Z,87.20
2018-05-01T20:50:17.864Z,87.00
2018-05-01T20:52:44.793Z,86.90
2018-05-01T20:55:11.681Z,87.20
2018-05-01T20:57:39.169Z,86.80
2018-05-01T21:00:06.973Z,87.00
2018-05-01T21:02:33.841Z,87.20
2018-05-01T21:05:00.786Z,87.50
2018-05-01T21:07:27.702Z,87.50
2018-05-01T21:09:54.587Z,87.50
2018-05-01T21:12:22.796Z,87.80
2018-05-01T21:14:49.910Z,87.70
2018-05-01T21:17:18.076Z,87.60
2018-05-01T21:19:44.994Z,88.00
2018-05-01T21:22:13.734Z,87.70
2018-05-01T21:24:40.685Z,87.60
2018-05-01T21:27:08.478Z,87.90
2018-05-01T21:29:36.430Z,87.90
2018-05-01T21:32:03.735Z,87.20
2018-05-01T21:34:31.345Z,87.50
2018-05-01T21:36:58.224Z,87.70
2018-05-01T21:39:25.116Z,87.70
2018-05-01T21:41:55.972Z,87.80
2018-05-01T21:44:24.293Z,87.80
2018-05-01T21:46:51.968Z,87.70
2018-05-01T21:49:18.852Z,88.10
2018-05-01T21:51:45.724Z,87.90
2018-05-01T21:54:12.658Z,88.10
2018-05-01T21:56:40.385Z,88.40
2018-05-01T21:59:07.273Z,88.40
2018-05-01T22:01:34.275Z,88.30
2018-05-01T22:04:02.685Z,88.40
2018-05-01T22:06:29.750Z,88.30
2018-05-01T22:08:57.229Z,88.20
2018-05-01T22:11:24.499Z,88.60
2018-05-01T22:13:51.408Z,88.50
2018-05-01T22:16:18.305Z,88.60
2018-05-01T22:18:45.532Z,88.40
2018-05-01T22:21:13.644Z,88.40
2018-05-01T22:23:40.523Z,88.20
2018-05-01T22:26:08.433Z,88.10
2018-05-01T22:28:36.065Z,88.50
2018-05-01T22:31:04.269Z,88.30
2018-05-01T22:33:31.945Z,88.20
2018-05-01T22:35:58.904Z,88.10
2018-05-01T22:38:25.770Z,88.30
2018-05-01T22:40:53.662Z,88.40
2018-05-01T22:43:21.983Z,88.30
2018-05-01T22:45:49.679Z,88.40
2018-05-01T22:48:18.161Z,88.40
2018-05-01T22:50:45.028Z,88.00
2018-05-01T22:53:11.917Z,88.10
2018-05-01T22:55:39.726Z,87.70
2018-05-01T22:58:06.687Z,87.60
2018-05-01T23:00:34.476Z,87.70
2018-05-01T23:03:01.764Z,87.10
2018-05-01T23:05:28.641Z,87.30
2018-05-01T23:07:56.018Z,87.00
2018-05-01T23:10:23.339Z,86.70
2018-05-01T23:12:50.292Z,86.60
2018-05-01T23:15:17.157Z,86.10
2018-05-01T23:17:45.387Z,86.00
2018-05-01T23:20:12.777Z,85.50
2018-05-01T23:22:40.073Z,85.60
2018-05-01T23:25:08.291Z,85.30
2018-05-01T23:27:35.745Z,85.30
2018-05-01T23:30:02.658Z,85.50
2018-05-01T23:32:29.634Z,86.00
2018-05-01T23:34:56.984Z,86.20
2018-05-01T23:37:23.864Z,86.30
2018-05-01T23:39:51.506Z,87.10
2018-05-01T23:42:18.528Z,87.00
2018-05-01T23:44:46.238Z,87.30
2018-05-01T23:47:13.676Z,87.50
2018-05-01T23:49:40.579Z,87.40
2018-05-01T23:52:07.488Z,87.40
2018-05-01T23:54:35.737Z,87.50
2018-05-01T23:57:03.741Z,87.50
2018-05-01T23:59:30.681Z,87.20
